Terminal Aerodrome Forecast
Issued by NWS

Home | Current Version | Previous Version | Text Only | Print | Product List | Glossary On
Versions: 1 2 3 4 5 6 7 8 9 10 11 12 13 14 15 16 17 18 19 20 21
000
FTUS41 KBGM 181100
TAFELM
TAF
KELM 181137Z 1812/1912 24004KT 1SM BR OVC002
      TEMPO 1812/1813 3SM BR SCT002 BKN050
     FM181300 36008KT P6SM SCT025 BKN040
      TEMPO 1813/1815 BKN025
     FM190000 02004KT P6SM SKC=

USA.gov is the U.S. government's official web portal to all federal, state and local government web resources and services.